sensor_id;sensor_type;location;lat;lon;timestamp;temperature;humidity
22008;DHT22;11168;56.976;24.168;2023-07-29T00:00:05;14.50;99.90
22008;DHT22;11168;56.976;24.168;2023-07-29T00:02:33;14.60;99.90
22008;DHT22;11168;56.976;24.168;2023-07-29T00:05:00;14.60;99.90
22008;DHT22;11168;56.976;24.168;2023-07-29T00:07:27;14.60;99.90
22008;DHT22;11168;56.976;24.168;2023-07-29T00:09:54;14.60;99.90
22008;DHT22;11168;56.976;24.168;2023-07-29T00:12:21;14.70;99.90
22008;DHT22;11168;56.976;24.168;2023-07-29T00:14:48;14.60;99.90
22008;DHT22;11168;56.976;24.168;2023-07-29T00:17:15;14.60;99.90
22008;DHT22;11168;56.976;24.168;2023-07-29T00:19:42;14.60;99.90
22008;DHT22;11168;56.976;24.168;2023-07-29T00:22:09;14.70;99.90
22008;DHT22;11168;56.976;24.168;2023-07-29T00:24:36;14.60;99.90
22008;DHT22;11168;56.976;24.168;2023-07-29T00:27:03;14.60;99.90
22008;DHT22;11168;56.976;24.168;2023-07-29T00:29:30;14.60;99.90
22008;DHT22;11168;56.976;24.168;2023-07-29T00:31:57;14.60;99.90
22008;DHT22;11168;56.976;24.168;2023-07-29T00:34:24;14.60;99.90
22008;DHT22;11168;56.976;24.168;2023-07-29T00:36:51;14.60;99.90
22008;DHT22;11168;56.976;24.168;2023-07-29T00:39:18;14.60;99.90
22008;DHT22;11168;56.976;24.168;2023-07-29T00:41:46;14.60;99.90
22008;DHT22;11168;56.976;24.168;2023-07-29T00:44:13;14.60;99.90
22008;DHT22;11168;56.976;24.168;2023-07-29T00:46:40;14.60;99.90
22008;DHT22;11168;56.976;24.168;2023-07-29T00:49:08;14.60;99.90
22008;DHT22;11168;56.976;24.168;2023-07-29T00:51:36;14.60;99.90
22008;DHT22;11168;56.976;24.168;2023-07-29T00:54:03;14.60;99.90
22008;DHT22;11168;56.976;24.168;2023-07-29T00:56:30;14.50;99.90
22008;DHT22;11168;56.976;24.168;2023-07-29T00:58:57;14.50;99.90
22008;DHT22;11168;56.976;24.168;2023-07-29T01:01:28;14.50;99.90
22008;DHT22;11168;56.976;24.168;2023-07-29T01:03:56;14.50;99.90
22008;DHT22;11168;56.976;24.168;2023-07-29T01:06:29;14.50;99.90
22008;DHT22;11168;56.976;24.168;2023-07-29T01:12:15;14.50;99.90
22008;DHT22;11168;56.976;24.168;2023-07-29T01:15:05;14.50;99.90
22008;DHT22;11168;56.976;24.168;2023-07-29T01:17:59;14.40;99.90
22008;DHT22;11168;56.976;24.168;2023-07-29T01:20:33;14.40;99.90
22008;DHT22;11168;56.976;24.168;2023-07-29T01:23:00;14.40;99.90
22008;DHT22;11168;56.976;24.168;2023-07-29T01:25:27;14.40;99.90
22008;DHT22;11168;56.976;24.168;2023-07-29T01:27:54;14.40;99.90
22008;DHT22;11168;56.976;24.168;2023-07-29T01:30:33;14.40;99.90
22008;DHT22;11168;56.976;24.168;2023-07-29T01:33:16;14.30;99.90
22008;DHT22;11168;56.976;24.168;2023-07-29T01:35:45;14.20;99.90
22008;DHT22;11168;56.976;24.168;2023-07-29T01:38:14;14.30;99.90
22008;DHT22;11168;56.976;24.168;2023-07-29T01:40:43;14.20;99.90
22008;DHT22;11168;56.976;24.168;2023-07-29T01:43:11;14.30;99.90
22008;DHT22;11168;56.976;24.168;2023-07-29T01:45:39;14.20;99.90
22008;DHT22;11168;56.976;24.168;2023-07-29T01:48:07;14.30;99.90
22008;DHT22;11168;56.976;24.168;2023-07-29T01:50:34;14.10;99.90
22008;DHT22;11168;56.976;24.168;2023-07-29T01:53:01;14.10;99.90
22008;DHT22;11168;56.976;24.168;2023-07-29T01:55:29;14.10;99.90
22008;DHT22;11168;56.976;24.168;2023-07-29T01:57:56;14.10;99.90
22008;DHT22;11168;56.976;24.168;2023-07-29T02:00:23;14.10;99.90
22008;DHT22;11168;56.976;24.168;2023-07-29T02:02:50;14.00;99.90
22008;DHT22;11168;56.976;24.168;2023-07-29T02:05:17;14.00;99.90
22008;DHT22;11168;56.976;24.168;2023-07-29T02:07:44;13.90;99.90
22008;DHT22;11168;56.976;24.168;2023-07-29T02:10:11;13.90;99.90
22008;DHT22;11168;56.976;24.168;2023-07-29T02:12:38;13.90;99.90
22008;DHT22;11168;56.976;24.168;2023-07-29T02:15:05;14.00;99.90
22008;DHT22;11168;56.976;24.168;2023-07-29T02:17:32;13.90;99.90
22008;DHT22;11168;56.976;24.168;2023-07-29T02:19:59;13.90;99.90
22008;DHT22;11168;56.976;24.168;2023-07-29T02:22:26;13.90;99.90
22008;DHT22;11168;56.976;24.168;2023-07-29T02:24:53;13.90;99.90
22008;DHT22;11168;56.976;24.168;2023-07-29T02:27:20;13.80;99.90
22008;DHT22;11168;56.976;24.168;2023-07-29T02:29:48;13.80;99.90
22008;DHT22;11168;56.976;24.168;2023-07-29T02:32:15;13.80;99.90
22008;DHT22;11168;56.976;24.168;2023-07-29T02:34:42;13.80;99.90
22008;DHT22;11168;56.976;24.168;2023-07-29T02:37:09;13.80;99.90
22008;DHT22;11168;56.976;24.168;2023-07-29T02:39:36;13.80;99.90
22008;DHT22;11168;56.976;24.168;2023-07-29T02:42:04;13.90;99.90
22008;DHT22;11168;56.976;24.168;2023-07-29T02:44:31;13.80;99.90
22008;DHT22;11168;56.976;24.168;2023-07-29T02:46:58;13.80;99.90
22008;DHT22;11168;56.976;24.168;2023-07-29T02:49:25;13.70;99.90
22008;DHT22;11168;56.976;24.168;2023-07-29T02:51:52;13.70;99.90
22008;DHT22;11168;56.976;24.168;2023-07-29T02:54:19;13.70;99.90
22008;DHT22;11168;56.976;24.168;2023-07-29T02:56:46;13.70;99.90
22008;DHT22;11168;56.976;24.168;2023-07-29T02:59:13;13.70;99.90
22008;DHT22;11168;56.976;24.168;2023-07-29T03:01:40;13.80;99.90
22008;DHT22;11168;56.976;24.168;2023-07-29T03:04:07;13.80;99.90
22008;DHT22;11168;56.976;24.168;2023-07-29T03:06:34;13.90;99.90
22008;DHT22;11168;56.976;24.168;2023-07-29T03:09:02;13.80;99.90
22008;DHT22;11168;56.976;24.168;2023-07-29T03:11:29;13.80;99.90
22008;DHT22;11168;56.976;24.168;2023-07-29T03:13:57;13.80;99.90
22008;DHT22;11168;56.976;24.168;2023-07-29T03:16:24;13.80;99.90
22008;DHT22;11168;56.976;24.168;2023-07-29T03:18:51;13.80;99.90
22008;DHT22;11168;56.976;24.168;2023-07-29T03:21:18;13.80;99.90
22008;DHT22;11168;56.976;24.168;2023-07-29T03:23:45;13.80;99.90
22008;DHT22;11168;56.976;24.168;2023-07-29T03:26:12;13.80;99.90
22008;DHT22;11168;56.976;24.168;2023-07-29T03:28:43;13.90;99.90
22008;DHT22;11168;56.976;24.168;2023-07-29T03:31:10;13.90;99.90
22008;DHT22;11168;56.976;24.168;2023-07-29T03:33:38;13.90;99.90
22008;DHT22;11168;56.976;24.168;2023-07-29T03:36:05;13.90;99.90
22008;DHT22;11168;56.976;24.168;2023-07-29T03:38:32;13.90;99.90
22008;DHT22;11168;56.976;24.168;2023-07-29T03:41:02;13.90;99.90
22008;DHT22;11168;56.976;24.168;2023-07-29T03:43:30;14.00;99.90
22008;DHT22;11168;56.976;24.168;2023-07-29T03:45:57;14.00;99.90
22008;DHT22;11168;56.976;24.168;2023-07-29T03:48:24;14.00;99.90
22008;DHT22;11168;56.976;24.168;2023-07-29T03:50:51;14.10;99.90
22008;DHT22;11168;56.976;24.168;2023-07-29T03:53:18;14.10;99.90
22008;DHT22;11168;56.976;24.168;2023-07-29T03:55:45;14.10;99.90
22008;DHT22;11168;56.976;24.168;2023-07-29T03:58:12;14.10;99.90
22008;DHT22;11168;56.976;24.168;2023-07-29T04:00:39;14.20;99.90
22008;DHT22;11168;56.976;24.168;2023-07-29T04:03:06;14.30;99.90
22008;DHT22;11168;56.976;24.168;2023-07-29T04:05:33;14.30;99.90
22008;DHT22;11168;56.976;24.168;2023-07-29T04:08:00;14.30;99.90
22008;DHT22;11168;56.976;24.168;2023-07-29T04:10:27;14.40;99.90
22008;DHT22;11168;56.976;24.168;2023-07-29T04:12:54;14.40;99.90
22008;DHT22;11168;56.976;24.168;2023-07-29T04:15:21;14.40;99.90
22008;DHT22;11168;56.976;24.168;2023-07-29T04:17:48;14.50;99.90
22008;DHT22;11168;56.976;24.168;2023-07-29T04:20:16;14.70;99.90
22008;DHT22;11168;56.976;24.168;2023-07-29T04:22:43;14.60;99.90
22008;DHT22;11168;56.976;24.168;2023-07-29T04:25:09;14.60;99.90
22008;DHT22;11168;56.976;24.168;2023-07-29T04:27:36;14.60;99.90
22008;DHT22;11168;56.976;24.168;2023-07-29T04:30:04;14.70;99.90
22008;DHT22;11168;56.976;24.168;2023-07-29T04:32:31;14.70;99.90
22008;DHT22;11168;56.976;24.168;2023-07-29T04:34:58;14.80;99.90
22008;DHT22;11168;56.976;24.168;2023-07-29T04:37:25;14.80;99.90
22008;DHT22;11168;56.976;24.168;2023-07-29T04:39:52;14.80;99.90
22008;DHT22;11168;56.976;24.168;2023-07-29T04:42:19;14.90;99.90
22008;DHT22;11168;56.976;24.168;2023-07-29T04:44:46;14.90;99.90
22008;DHT22;11168;56.976;24.168;2023-07-29T04:47:13;14.90;99.90
22008;DHT22;11168;56.976;24.168;2023-07-29T04:49:40;15.10;99.90
22008;DHT22;11168;56.976;24.168;2023-07-29T04:52:07;15.20;99.90
22008;DHT22;11168;56.976;24.168;2023-07-29T04:54:34;15.30;99.90
22008;DHT22;11168;56.976;24.168;2023-07-29T04:57:01;15.30;99.90
22008;DHT22;11168;56.976;24.168;2023-07-29T04:59:28;15.30;99.90
22008;DHT22;11168;56.976;24.168;2023-07-29T05:01:55;15.40;99.90
22008;DHT22;11168;56.976;24.168;2023-07-29T05:04:23;15.60;99.90
22008;DHT22;11168;56.976;24.168;2023-07-29T05:06:50;15.70;99.90
22008;DHT22;11168;56.976;24.168;2023-07-29T05:09:18;15.70;99.90
22008;DHT22;11168;56.976;24.168;2023-07-29T05:11:47;15.70;99.90
22008;DHT22;11168;56.976;24.168;2023-07-29T05:14:14;15.80;99.90
22008;DHT22;11168;56.976;24.168;2023-07-29T05:16:42;15.90;99.90
22008;DHT22;11168;56.976;24.168;2023-07-29T05:19:09;15.90;99.90
22008;DHT22;11168;56.976;24.168;2023-07-29T05:21:37;16.00;99.90
22008;DHT22;11168;56.976;24.168;2023-07-29T05:24:05;15.90;99.90
22008;DHT22;11168;56.976;24.168;2023-07-29T05:26:32;15.90;99.90
22008;DHT22;11168;56.976;24.168;2023-07-29T05:28:59;16.00;99.90
22008;DHT22;11168;56.976;24.168;2023-07-29T05:31:26;16.10;99.90
22008;DHT22;11168;56.976;24.168;2023-07-29T05:33:53;16.00;99.90
22008;DHT22;11168;56.976;24.168;2023-07-29T05:36:20;15.90;99.90
22008;DHT22;11168;56.976;24.168;2023-07-29T05:38:47;16.00;99.90
22008;DHT22;11168;56.976;24.168;2023-07-29T05:41:14;16.20;99.90
22008;DHT22;11168;56.976;24.168;2023-07-29T05:43:41;16.10;99.90
22008;DHT22;11168;56.976;24.168;2023-07-29T05:46:10;16.30;99.90
22008;DHT22;11168;56.976;24.168;2023-07-29T05:48:37;16.40;99.90
22008;DHT22;11168;56.976;24.168;2023-07-29T05:51:06;16.40;99.90
22008;DHT22;11168;56.976;24.168;2023-07-29T05:53:33;16.40;99.90
22008;DHT22;11168;56.976;24.168;2023-07-29T05:56:00;16.60;99.90
22008;DHT22;11168;56.976;24.168;2023-07-29T05:58:27;16.60;99.90
22008;DHT22;11168;56.976;24.168;2023-07-29T06:00:54;16.60;99.90
22008;DHT22;11168;56.976;24.168;2023-07-29T06:03:21;16.70;99.90
22008;DHT22;11168;56.976;24.168;2023-07-29T06:05:49;16.50;99.90
22008;DHT22;11168;56.976;24.168;2023-07-29T06:08:20;16.50;99.90
22008;DHT22;11168;56.976;24.168;2023-07-29T06:10:47;16.40;99.90
22008;DHT22;11168;56.976;24.168;2023-07-29T06:13:14;16.50;99.90
22008;DHT22;11168;56.976;24.168;2023-07-29T06:15:41;16.60;99.90
22008;DHT22;11168;56.976;24.168;2023-07-29T06:18:08;16.40;99.90
22008;DHT22;11168;56.976;24.168;2023-07-29T06:20:36;16.30;99.90
22008;DHT22;11168;56.976;24.168;2023-07-29T06:23:03;16.30;99.90
22008;DHT22;11168;56.976;24.168;2023-07-29T06:25:30;16.30;99.90
22008;DHT22;11168;56.976;24.168;2023-07-29T06:27:57;16.40;99.90
22008;DHT22;11168;56.976;24.168;2023-07-29T06:30:25;16.40;99.90
22008;DHT22;11168;56.976;24.168;2023-07-29T06:32:52;16.60;99.90
22008;DHT22;11168;56.976;24.168;2023-07-29T06:35:19;16.50;99.90
22008;DHT22;11168;56.976;24.168;2023-07-29T06:37:47;16.50;99.90
22008;DHT22;11168;56.976;24.168;2023-07-29T06:40:14;16.50;99.90
22008;DHT22;11168;56.976;24.168;2023-07-29T06:42:41;16.80;99.90
22008;DHT22;11168;56.976;24.168;2023-07-29T06:45:09;16.90;99.90
22008;DHT22;11168;56.976;24.168;2023-07-29T06:47:38;17.00;99.90
22008;DHT22;11168;56.976;24.168;2023-07-29T06:50:05;17.10;99.90
22008;DHT22;11168;56.976;24.168;2023-07-29T06:52:33;17.20;99.90
22008;DHT22;11168;56.976;24.168;2023-07-29T06:55:01;17.30;99.90
22008;DHT22;11168;56.976;24.168;2023-07-29T06:57:28;17.40;99.90
22008;DHT22;11168;56.976;24.168;2023-07-29T06:59:56;17.60;99.90
22008;DHT22;11168;56.976;24.168;2023-07-29T07:02:25;17.50;99.90
22008;DHT22;11168;56.976;24.168;2023-07-29T07:04:55;17.70;99.90
22008;DHT22;11168;56.976;24.168;2023-07-29T07:07:22;18.00;99.90
22008;DHT22;11168;56.976;24.168;2023-07-29T07:09:49;18.60;99.90
22008;DHT22;11168;56.976;24.168;2023-07-29T07:12:16;19.50;99.90
22008;DHT22;11168;56.976;24.168;2023-07-29T07:14:47;20.00;99.90
22008;DHT22;11168;56.976;24.168;2023-07-29T07:17:15;20.70;99.90
22008;DHT22;11168;56.976;24.168;2023-07-29T07:19:42;20.60;99.90
22008;DHT22;11168;56.976;24.168;2023-07-29T07:22:10;20.90;99.90
22008;DHT22;11168;56.976;24.168;2023-07-29T07:24:37;21.50;99.90
22008;DHT22;11168;56.976;24.168;2023-07-29T07:27:05;21.70;99.90
22008;DHT22;11168;56.976;24.168;2023-07-29T07:29:33;21.70;99.90
22008;DHT22;11168;56.976;24.168;2023-07-29T07:32:00;21.30;99.90
22008;DHT22;11168;56.976;24.168;2023-07-29T07:34:27;21.40;99.90
22008;DHT22;11168;56.976;24.168;2023-07-29T07:36:55;21.40;99.90
22008;DHT22;11168;56.976;24.168;2023-07-29T07:39:22;20.90;99.90
22008;DHT22;11168;56.976;24.168;2023-07-29T07:41:49;20.90;99.90
22008;DHT22;11168;56.976;24.168;2023-07-29T07:44:16;20.80;99.90
22008;DHT22;11168;56.976;24.168;2023-07-29T07:46:45;20.80;99.90
22008;DHT22;11168;56.976;24.168;2023-07-29T07:49:12;21.00;99.90
22008;DHT22;11168;56.976;24.168;2023-07-29T07:51:40;21.70;99.90
22008;DHT22;11168;56.976;24.168;2023-07-29T07:54:07;21.80;99.90
22008;DHT22;11168;56.976;24.168;2023-07-29T07:56:34;21.50;99.90
22008;DHT22;11168;56.976;24.168;2023-07-29T07:59:02;21.50;99.90
22008;DHT22;11168;56.976;24.168;2023-07-29T08:01:37;21.60;99.90
22008;DHT22;11168;56.976;24.168;2023-07-29T08:04:05;22.10;99.90
22008;DHT22;11168;56.976;24.168;2023-07-29T08:06:33;22.50;99.90
22008;DHT22;11168;56.976;24.168;2023-07-29T08:09:01;22.70;99.90
22008;DHT22;11168;56.976;24.168;2023-07-29T08:11:28;22.90;99.90
22008;DHT22;11168;56.976;24.168;2023-07-29T08:13:55;22.40;99.90
22008;DHT22;11168;56.976;24.168;2023-07-29T08:16:22;22.10;99.90
22008;DHT22;11168;56.976;24.168;2023-07-29T08:18:49;22.50;99.90
22008;DHT22;11168;56.976;24.168;2023-07-29T08:21:17;22.50;99.90
22008;DHT22;11168;56.976;24.168;2023-07-29T08:23:44;22.20;99.90
22008;DHT22;11168;56.976;24.168;2023-07-29T08:26:11;21.90;99.90
22008;DHT22;11168;56.976;24.168;2023-07-29T08:28:39;22.40;99.90
22008;DHT22;11168;56.976;24.168;2023-07-29T08:31:07;22.30;99.90
22008;DHT22;11168;56.976;24.168;2023-07-29T08:33:35;22.80;99.90
22008;DHT22;11168;56.976;24.168;2023-07-29T08:36:03;24.00;99.90
22008;DHT22;11168;56.976;24.168;2023-07-29T08:38:31;25.20;99.90
22008;DHT22;11168;56.976;24.168;2023-07-29T08:41:19;24.00;99.90
22008;DHT22;11168;56.976;24.168;2023-07-29T08:44:06;24.50;99.90
22008;DHT22;11168;56.976;24.168;2023-07-29T08:46:39;25.50;99.90
22008;DHT22;11168;56.976;24.168;2023-07-29T08:49:08;26.80;99.90
22008;DHT22;11168;56.976;24.168;2023-07-29T08:51:36;25.90;99.90
22008;DHT22;11168;56.976;24.168;2023-07-29T08:54:03;25.20;99.90
22008;DHT22;11168;56.976;24.168;2023-07-29T08:56:31;24.40;99.90
22008;DHT22;11168;56.976;24.168;2023-07-29T08:58:58;23.90;99.90
22008;DHT22;11168;56.976;24.168;2023-07-29T09:01:27;23.20;99.90
22008;DHT22;11168;56.976;24.168;2023-07-29T09:03:54;22.70;99.90
22008;DHT22;11168;56.976;24.168;2023-07-29T09:06:22;22.40;99.90
22008;DHT22;11168;56.976;24.168;2023-07-29T09:08:53;22.10;99.90
22008;DHT22;11168;56.976;24.168;2023-07-29T09:11:21;21.70;99.90
22008;DHT22;11168;56.976;24.168;2023-07-29T09:13:48;21.50;99.90
22008;DHT22;11168;56.976;24.168;2023-07-29T09:16:16;21.40;99.90
22008;DHT22;11168;56.976;24.168;2023-07-29T09:18:43;21.20;99.90
22008;DHT22;11168;56.976;24.168;2023-07-29T09:21:11;20.90;99.90
22008;DHT22;11168;56.976;24.168;2023-07-29T09:23:44;20.60;99.90
22008;DHT22;11168;56.976;24.168;2023-07-29T09:26:11;20.60;99.90
22008;DHT22;11168;56.976;24.168;2023-07-29T09:28:39;20.50;99.90
22008;DHT22;11168;56.976;24.168;2023-07-29T09:31:19;20.60;99.90
22008;DHT22;11168;56.976;24.168;2023-07-29T09:33:48;22.40;99.90
22008;DHT22;11168;56.976;24.168;2023-07-29T09:36:15;24.80;99.90
22008;DHT22;11168;56.976;24.168;2023-07-29T09:38:44;26.30;99.90
22008;DHT22;11168;56.976;24.168;2023-07-29T09:41:13;27.80;99.90
22008;DHT22;11168;56.976;24.168;2023-07-29T09:43:41;28.80;99.90
22008;DHT22;11168;56.976;24.168;2023-07-29T09:46:08;30.10;99.90
22008;DHT22;11168;56.976;24.168;2023-07-29T09:48:38;30.40;99.90
22008;DHT22;11168;56.976;24.168;2023-07-29T09:51:13;30.60;99.90
22008;DHT22;11168;56.976;24.168;2023-07-29T09:53:44;28.70;99.90
22008;DHT22;11168;56.976;24.168;2023-07-29T09:56:15;28.30;99.90
22008;DHT22;11168;56.976;24.168;2023-07-29T09:58:47;28.50;99.90
22008;DHT22;11168;56.976;24.168;2023-07-29T10:01:15;28.40;99.90
22008;DHT22;11168;56.976;24.168;2023-07-29T10:03:43;28.10;99.90
22008;DHT22;11168;56.976;24.168;2023-07-29T10:06:11;28.80;99.90
22008;DHT22;11168;56.976;24.168;2023-07-29T10:08:39;29.30;99.90
22008;DHT22;11168;56.976;24.168;2023-07-29T10:11:08;29.90;99.90
22008;DHT22;11168;56.976;24.168;2023-07-29T10:13:36;30.40;99.90
22008;DHT22;11168;56.976;24.168;2023-07-29T10:16:04;30.40;99.90
22008;DHT22;11168;56.976;24.168;2023-07-29T10:18:32;29.80;99.90
22008;DHT22;11168;56.976;24.168;2023-07-29T10:21:01;29.30;99.90
22008;DHT22;11168;56.976;24.168;2023-07-29T10:23:38;29.40;99.90
22008;DHT22;11168;56.976;24.168;2023-07-29T10:26:10;29.30;99.90
22008;DHT22;11168;56.976;24.168;2023-07-29T10:28:46;29.00;99.90
22008;DHT22;11168;56.976;24.168;2023-07-29T10:31:15;29.10;99.90
22008;DHT22;11168;56.976;24.168;2023-07-29T10:33:44;29.00;99.90
22008;DHT22;11168;56.976;24.168;2023-07-29T10:36:12;28.60;99.90
22008;DHT22;11168;56.976;24.168;2023-07-29T10:38:40;28.00;99.90
22008;DHT22;11168;56.976;24.168;2023-07-29T10:41:07;27.90;99.90
22008;DHT22;11168;56.976;24.168;2023-07-29T10:43:36;26.90;99.90
22008;DHT22;11168;56.976;24.168;2023-07-29T10:46:18;26.00;99.90
22008;DHT22;11168;56.976;24.168;2023-07-29T10:48:54;25.90;99.90
22008;DHT22;11168;56.976;24.168;2023-07-29T10:51:34;24.70;99.90
22008;DHT22;11168;56.976;24.168;2023-07-29T10:54:11;24.70;99.90
22008;DHT22;11168;56.976;24.168;2023-07-29T10:56:44;24.90;99.90
22008;DHT22;11168;56.976;24.168;2023-07-29T11:01:51;25.90;99.90
22008;DHT22;11168;56.976;24.168;2023-07-29T11:09:55;26.00;99.90
22008;DHT22;11168;56.976;24.168;2023-07-29T11:12:48;25.60;99.90
22008;DHT22;11168;56.976;24.168;2023-07-29T11:17:55;25.50;99.90
22008;DHT22;11168;56.976;24.168;2023-07-29T11:22:54;25.40;99.90
22008;DHT22;11168;56.976;24.168;2023-07-29T11:25:23;25.20;99.90
22008;DHT22;11168;56.976;24.168;2023-07-29T11:27:52;25.30;99.90
22008;DHT22;11168;56.976;24.168;2023-07-29T11:30:21;25.70;99.90
22008;DHT22;11168;56.976;24.168;2023-07-29T11:32:50;26.00;99.90
22008;DHT22;11168;56.976;24.168;2023-07-29T11:35:18;26.10;99.90
22008;DHT22;11168;56.976;24.168;2023-07-29T11:37:47;25.70;99.90
22008;DHT22;11168;56.976;24.168;2023-07-29T11:40:20;25.40;99.90
22008;DHT22;11168;56.976;24.168;2023-07-29T11:42:48;25.30;99.90
22008;DHT22;11168;56.976;24.168;2023-07-29T11:45:17;25.20;99.90
22008;DHT22;11168;56.976;24.168;2023-07-29T11:47:45;25.20;99.90
22008;DHT22;11168;56.976;24.168;2023-07-29T11:50:14;25.60;99.90
22008;DHT22;11168;56.976;24.168;2023-07-29T11:52:43;25.80;99.90
22008;DHT22;11168;56.976;24.168;2023-07-29T11:55:15;26.20;99.90
22008;DHT22;11168;56.976;24.168;2023-07-29T11:57:43;26.30;99.90
22008;DHT22;11168;56.976;24.168;2023-07-29T12:00:11;26.00;99.90
22008;DHT22;11168;56.976;24.168;2023-07-29T12:02:41;25.90;99.90
22008;DHT22;11168;56.976;24.168;2023-07-29T12:05:09;25.90;99.90
22008;DHT22;11168;56.976;24.168;2023-07-29T12:07:39;26.00;99.90
22008;DHT22;11168;56.976;24.168;2023-07-29T12:10:06;25.80;99.90
22008;DHT22;11168;56.976;24.168;2023-07-29T12:12:40;26.00;99.90
22008;DHT22;11168;56.976;24.168;2023-07-29T12:15:13;25.70;99.90
22008;DHT22;11168;56.976;24.168;2023-07-29T12:17:40;25.60;99.90
22008;DHT22;11168;56.976;24.168;2023-07-29T12:20:09;25.60;99.90
22008;DHT22;11168;56.976;24.168;2023-07-29T12:22:37;25.50;99.90
22008;DHT22;11168;56.976;24.168;2023-07-29T12:25:05;25.00;99.90
22008;DHT22;11168;56.976;24.168;2023-07-29T12:27:33;25.30;99.90
22008;DHT22;11168;56.976;24.168;2023-07-29T12:30:01;25.60;99.90
22008;DHT22;11168;56.976;24.168;2023-07-29T12:32:30;25.90;99.90
22008;DHT22;11168;56.976;24.168;2023-07-29T12:34:58;26.00;99.90
22008;DHT22;11168;56.976;24.168;2023-07-29T12:37:32;26.30;99.90
22008;DHT22;11168;56.976;24.168;2023-07-29T12:39:59;26.50;99.90
22008;DHT22;11168;56.976;24.168;2023-07-29T12:42:27;26.30;99.60
22008;DHT22;11168;56.976;24.168;2023-07-29T12:44:53;25.40;98.60
22008;DHT22;11168;56.976;24.168;2023-07-29T12:47:20;25.40;99.90
22008;DHT22;11168;56.976;24.168;2023-07-29T12:49:47;25.70;99.90
22008;DHT22;11168;56.976;24.168;2023-07-29T12:52:14;25.70;99.90
22008;DHT22;11168;56.976;24.168;2023-07-29T12:54:41;25.50;99.00
22008;DHT22;11168;56.976;24.168;2023-07-29T12:57:11;25.60;99.90
22008;DHT22;11168;56.976;24.168;2023-07-29T12:59:38;25.70;99.90
22008;DHT22;11168;56.976;24.168;2023-07-29T13:02:05;25.60;99.90
22008;DHT22;11168;56.976;24.168;2023-07-29T13:04:33;25.70;99.90
22008;DHT22;11168;56.976;24.168;2023-07-29T13:07:00;25.80;99.10
22008;DHT22;11168;56.976;24.168;2023-07-29T13:09:27;25.90;99.60
22008;DHT22;11168;56.976;24.168;2023-07-29T13:11:54;25.90;99.80
22008;DHT22;11168;56.976;24.168;2023-07-29T13:14:22;25.80;99.60
22008;DHT22;11168;56.976;24.168;2023-07-29T13:16:49;25.40;98.80
22008;DHT22;11168;56.976;24.168;2023-07-29T13:19:16;25.50;99.40
22008;DHT22;11168;56.976;24.168;2023-07-29T13:21:44;25.60;99.00
22008;DHT22;11168;56.976;24.168;2023-07-29T13:24:12;25.70;99.60
22008;DHT22;11168;56.976;24.168;2023-07-29T13:26:38;25.70;99.10
22008;DHT22;11168;56.976;24.168;2023-07-29T13:29:05;25.80;99.10
22008;DHT22;11168;56.976;24.168;2023-07-29T13:31:35;25.90;98.40
22008;DHT22;11168;56.976;24.168;2023-07-29T13:34:03;25.90;98.70
22008;DHT22;11168;56.976;24.168;2023-07-29T13:36:30;25.80;98.70
22008;DHT22;11168;56.976;24.168;2023-07-29T13:38:57;25.70;99.10
22008;DHT22;11168;56.976;24.168;2023-07-29T13:41:24;25.70;99.20
22008;DHT22;11168;56.976;24.168;2023-07-29T13:43:51;25.50;98.10
22008;DHT22;11168;56.976;24.168;2023-07-29T13:46:18;25.50;98.20
22008;DHT22;11168;56.976;24.168;2023-07-29T13:48:48;25.40;98.30
22008;DHT22;11168;56.976;24.168;2023-07-29T13:51:15;25.30;98.60
22008;DHT22;11168;56.976;24.168;2023-07-29T13:53:41;25.20;98.60
22008;DHT22;11168;56.976;24.168;2023-07-29T13:56:09;25.20;98.30
22008;DHT22;11168;56.976;24.168;2023-07-29T13:58:36;25.20;98.40
22008;DHT22;11168;56.976;24.168;2023-07-29T14:01:03;25.00;98.80
22008;DHT22;11168;56.976;24.168;2023-07-29T14:03:30;25.00;98.90
22008;DHT22;11168;56.976;24.168;2023-07-29T14:05:57;25.00;98.60
22008;DHT22;11168;56.976;24.168;2023-07-29T14:08:24;25.00;98.60
22008;DHT22;11168;56.976;24.168;2023-07-29T14:10:51;25.00;98.70
22008;DHT22;11168;56.976;24.168;2023-07-29T14:13:18;25.10;98.90
22008;DHT22;11168;56.976;24.168;2023-07-29T14:15:45;25.20;99.20
22008;DHT22;11168;56.976;24.168;2023-07-29T14:18:12;25.10;98.50
22008;DHT22;11168;56.976;24.168;2023-07-29T14:20:40;25.10;98.60
22008;DHT22;11168;56.976;24.168;2023-07-29T14:23:07;24.70;99.40
22008;DHT22;11168;56.976;24.168;2023-07-29T14:25:34;24.60;99.40
22008;DHT22;11168;56.976;24.168;2023-07-29T14:28:01;24.50;99.60
22008;DHT22;11168;56.976;24.168;2023-07-29T14:30:28;24.50;99.40
22008;DHT22;11168;56.976;24.168;2023-07-29T14:32:55;24.50;99.60
22008;DHT22;11168;56.976;24.168;2023-07-29T14:35:22;24.40;99.70
22008;DHT22;11168;56.976;24.168;2023-07-29T14:37:49;24.40;99.80
22008;DHT22;11168;56.976;24.168;2023-07-29T14:40:16;24.40;99.70
22008;DHT22;11168;56.976;24.168;2023-07-29T14:42:43;24.40;99.80
22008;DHT22;11168;56.976;24.168;2023-07-29T14:45:12;24.30;99.20
22008;DHT22;11168;56.976;24.168;2023-07-29T14:47:39;24.30;99.50
22008;DHT22;11168;56.976;24.168;2023-07-29T14:50:06;24.20;98.90
22008;DHT22;11168;56.976;24.168;2023-07-29T14:52:33;24.20;99.30
22008;DHT22;11168;56.976;24.168;2023-07-29T14:55:00;24.20;99.20
22008;DHT22;11168;56.976;24.168;2023-07-29T14:57:27;24.10;98.90
22008;DHT22;11168;56.976;24.168;2023-07-29T14:59:54;24.10;99.20
22008;DHT22;11168;56.976;24.168;2023-07-29T15:02:21;24.20;99.30
22008;DHT22;11168;56.976;24.168;2023-07-29T15:04:49;24.20;99.00
22008;DHT22;11168;56.976;24.168;2023-07-29T15:07:16;24.10;98.20
22008;DHT22;11168;56.976;24.168;2023-07-29T15:09:44;24.20;98.60
22008;DHT22;11168;56.976;24.168;2023-07-29T15:12:11;24.20;98.70
22008;DHT22;11168;56.976;24.168;2023-07-29T15:14:38;24.30;99.60
22008;DHT22;11168;56.976;24.168;2023-07-29T15:17:05;24.30;99.10
22008;DHT22;11168;56.976;24.168;2023-07-29T15:19:33;24.30;99.50
22008;DHT22;11168;56.976;24.168;2023-07-29T15:22:00;24.30;99.80
22008;DHT22;11168;56.976;24.168;2023-07-29T15:24:27;24.40;99.90
22008;DHT22;11168;56.976;24.168;2023-07-29T15:26:57;24.30;99.90
22008;DHT22;11168;56.976;24.168;2023-07-29T15:29:25;24.30;99.60
22008;DHT22;11168;56.976;24.168;2023-07-29T15:31:52;24.30;99.30
22008;DHT22;11168;56.976;24.168;2023-07-29T15:34:19;24.30;98.70
22008;DHT22;11168;56.976;24.168;2023-07-29T15:36:46;24.20;98.40